createdAt,value
2022-08-25T00:00:41.155Z,16.21
2022-08-25T00:01:41.148Z,16.21
2022-08-25T00:02:41.172Z,16.24
2022-08-25T00:03:42.130Z,16.24
2022-08-25T00:04:41.149Z,16.16
2022-08-25T00:05:41.183Z,16.15
2022-08-25T00:06:41.110Z,16.16
2022-08-25T00:07:41.098Z,16.12
2022-08-25T00:08:41.093Z,16.16
2022-08-25T00:09:41.103Z,16.26
2022-08-25T00:10:41.074Z,16.12
2022-08-25T00:11:41.068Z,16.16
2022-08-25T00:12:41.067Z,16.15
2022-08-25T00:13:41.050Z,16.24
2022-08-25T00:14:41.070Z,16.17
2022-08-25T00:15:41.058Z,16.12
2022-08-25T00:16:41.029Z,16.09
2022-08-25T00:17:41.022Z,16.08
2022-08-25T00:18:41.017Z,16.10
2022-08-25T00:19:41.029Z,16.10
2022-08-25T00:20:40.999Z,16.10
2022-08-25T00:21:41.990Z,16.02
2022-08-25T00:22:40.982Z,16.13
2022-08-25T00:23:40.971Z,16.08
2022-08-25T00:24:40.990Z,15.98
2022-08-25T00:25:40.955Z,16.08
2022-08-25T00:26:41.948Z,16.12
2022-08-25T00:27:40.946Z,16.02
2022-08-25T00:28:40.943Z,15.94
2022-08-25T00:29:40.948Z,15.95
2022-08-25T00:30:40.956Z,15.98
2022-08-25T00:31:40.924Z,15.88
2022-08-25T00:32:40.905Z,15.83
2022-08-25T00:33:40.893Z,15.95
2022-08-25T00:34:40.919Z,15.82
2022-08-25T00:35:40.876Z,15.86
2022-08-25T00:36:40.888Z,15.82
2022-08-25T00:37:40.862Z,15.86
2022-08-25T00:38:40.854Z,15.83
2022-08-25T00:39:40.878Z,15.82
2022-08-25T00:40:40.836Z,15.83
2022-08-25T00:41:40.827Z,15.77
2022-08-25T00:42:40.824Z,15.72
2022-08-25T00:43:40.810Z,15.77
2022-08-25T00:44:40.806Z,15.67
2022-08-25T00:45:40.825Z,15.68
2022-08-25T00:46:40.823Z,15.65
2022-08-25T00:47:40.781Z,15.64
2022-08-25T00:48:40.781Z,15.72
2022-08-25T00:49:40.761Z,15.67
2022-08-25T00:50:40.779Z,15.59
2022-08-25T00:51:40.759Z,15.59
2022-08-25T00:52:40.745Z,15.61
2022-08-25T00:53:40.732Z,15.62
2022-08-25T00:54:40.724Z,15.58
2022-08-25T00:55:40.735Z,15.67
2022-08-25T00:56:40.715Z,15.59
2022-08-25T00:57:40.720Z,15.59
2022-08-25T00:58:40.698Z,15.61
2022-08-25T00:59:40.710Z,15.57
2022-08-25T01:00:40.677Z,15.57
2022-08-25T01:01:40.710Z,15.58
2022-08-25T01:02:40.722Z,15.59
2022-08-25T01:03:40.653Z,15.52
2022-08-25T01:04:42.811Z,15.55
2022-08-25T01:05:41.639Z,15.51
2022-08-25T01:06:40.630Z,15.40
2022-08-25T01:07:40.622Z,15.49
2022-08-25T01:08:40.632Z,15.52
2022-08-25T01:09:40.629Z,15.54
2022-08-25T01:10:40.596Z,15.57
2022-08-25T01:11:40.588Z,15.54
2022-08-25T01:12:40.584Z,15.59
2022-08-25T01:13:40.566Z,15.59
2022-08-25T01:14:40.591Z,15.51
2022-08-25T01:15:40.647Z,15.52
2022-08-25T01:16:40.548Z,15.55
2022-08-25T01:17:40.542Z,15.61
2022-08-25T01:18:40.530Z,15.49
2022-08-25T01:19:40.551Z,15.54
2022-08-25T01:20:40.514Z,15.54
2022-08-25T01:21:40.513Z,15.54
2022-08-25T01:22:40.501Z,15.43
2022-08-25T01:23:40.489Z,15.54
2022-08-25T01:24:40.510Z,15.49
2022-08-25T01:25:40.481Z,15.43
2022-08-25T01:26:40.467Z,15.39
2022-08-25T01:27:40.463Z,15.37
2022-08-25T01:28:40.454Z,15.43
2022-08-25T01:29:40.471Z,15.40
2022-08-25T01:30:40.475Z,15.40
2022-08-25T01:31:40.477Z,15.29
2022-08-25T01:32:40.420Z,15.35
2022-08-25T01:33:40.410Z,15.36
2022-08-25T01:34:40.434Z,15.33
2022-08-25T01:35:40.394Z,15.31
2022-08-25T01:36:40.391Z,15.28
2022-08-25T01:37:40.379Z,15.15
2022-08-25T01:38:40.370Z,15.19
2022-08-25T01:39:40.389Z,15.21
2022-08-25T01:40:40.358Z,15.22
2022-08-25T01:41:40.347Z,15.17
2022-08-25T01:42:40.339Z,15.18
2022-08-25T01:43:40.333Z,15.15
2022-08-25T01:44:40.360Z,15.15
2022-08-25T01:45:40.325Z,15.14
2022-08-25T01:46:40.308Z,15.18
2022-08-25T01:47:40.299Z,15.11
2022-08-25T01:48:40.295Z,15.24
2022-08-25T01:49:40.310Z,15.14
2022-08-25T01:50:40.275Z,15.11
2022-08-25T01:51:40.276Z,15.22
2022-08-25T01:52:40.265Z,15.21
2022-08-25T01:53:40.254Z,15.14
2022-08-25T01:54:40.269Z,15.15
2022-08-25T01:55:40.239Z,15.19
2022-08-25T01:56:40.227Z,15.06
2022-08-25T01:57:40.223Z,15.10
2022-08-25T01:58:40.212Z,15.09
2022-08-25T01:59:40.233Z,15.06
2022-08-25T02:00:40.196Z,15.10
2022-08-25T02:01:40.256Z,15.04
2022-08-25T02:02:42.689Z,15.04
2022-08-25T02:03:42.285Z,14.99
2022-08-25T02:04:44.240Z,14.96
2022-08-25T02:05:40.160Z,14.86
2022-08-25T02:06:40.151Z,14.91
2022-08-25T02:07:40.142Z,14.94
2022-08-25T02:08:40.138Z,14.89
2022-08-25T02:09:40.162Z,14.94
2022-08-25T02:10:40.119Z,14.91
2022-08-25T02:11:40.113Z,14.86
2022-08-25T02:12:40.102Z,14.89
2022-08-25T02:13:40.095Z,14.88
2022-08-25T02:14:40.121Z,14.99
2022-08-25T02:15:40.078Z,14.86
2022-08-25T02:16:40.097Z,14.85
2022-08-25T02:17:40.060Z,14.96
2022-08-25T02:18:40.055Z,14.86
2022-08-25T02:19:40.052Z,14.84
2022-08-25T02:20:40.064Z,14.81
2022-08-25T02:21:40.035Z,14.84
2022-08-25T02:22:40.025Z,14.82
2022-08-25T02:23:40.019Z,14.85
2022-08-25T02:24:40.014Z,14.82
2022-08-25T02:25:40.031Z,14.81
2022-08-25T02:26:39.990Z,14.82
2022-08-25T02:27:39.982Z,14.79
2022-08-25T02:28:39.981Z,14.66
2022-08-25T02:29:39.969Z,14.63
2022-08-25T02:30:40.025Z,14.58
2022-08-25T02:31:39.952Z,14.60
2022-08-25T02:32:39.940Z,14.63
2022-08-25T02:33:39.935Z,14.79
2022-08-25T02:34:39.928Z,14.69
2022-08-25T02:35:39.950Z,14.65
2022-08-25T02:36:39.913Z,14.69
2022-08-25T02:37:39.907Z,14.79
2022-08-25T02:38:39.902Z,14.69
2022-08-25T02:39:39.891Z,14.70
2022-08-25T02:40:39.909Z,14.63
2022-08-25T02:41:39.881Z,14.77
2022-08-25T02:42:39.870Z,14.66
2022-08-25T02:43:39.861Z,14.78
2022-08-25T02:44:39.854Z,14.68
2022-08-25T02:45:39.946Z,14.79
2022-08-25T02:46:39.839Z,14.85
2022-08-25T02:47:39.831Z,14.68
2022-08-25T02:48:39.823Z,14.77
2022-08-25T02:49:39.818Z,14.81
2022-08-25T02:50:39.836Z,14.78
2022-08-25T02:51:39.801Z,14.72
2022-08-25T02:52:39.799Z,14.70
2022-08-25T02:53:39.791Z,14.63
2022-08-25T02:54:39.785Z,14.78
2022-08-25T02:55:39.799Z,14.72
2022-08-25T02:56:39.766Z,14.77
2022-08-25T02:57:39.756Z,14.78
2022-08-25T02:58:39.745Z,14.77
2022-08-25T02:59:39.739Z,14.69
2022-08-25T03:00:39.757Z,14.70
2022-08-25T03:01:39.755Z,14.81
2022-08-25T03:02:39.730Z,14.73
2022-08-25T03:03:39.849Z,14.81
2022-08-25T03:04:39.776Z,14.78
2022-08-25T03:05:39.730Z,14.77
2022-08-25T03:06:39.689Z,14.72
2022-08-25T03:07:39.797Z,14.77
2022-08-25T03:08:39.675Z,14.77
2022-08-25T03:09:39.666Z,14.63
2022-08-25T03:10:39.684Z,14.66
2022-08-25T03:11:39.645Z,14.62
2022-08-25T03:12:39.650Z,14.63
2022-08-25T03:13:39.631Z,14.62
2022-08-25T03:14:39.624Z,14.63
2022-08-25T03:15:39.647Z,14.58
2022-08-25T03:16:39.762Z,14.54
2022-08-25T03:17:39.605Z,14.62
2022-08-25T03:18:39.594Z,14.54
2022-08-25T03:19:39.588Z,14.55
2022-08-25T03:20:39.608Z,14.50
2022-08-25T03:21:39.572Z,14.53
2022-08-25T03:22:39.567Z,14.53
2022-08-25T03:23:39.562Z,14.58
2022-08-25T03:24:39.548Z,14.50
2022-08-25T03:25:39.570Z,14.68
2022-08-25T03:26:39.558Z,14.60
2022-08-25T03:27:39.524Z,14.54
2022-08-25T03:28:39.520Z,14.54
2022-08-25T03:29:39.512Z,14.54
2022-08-25T03:30:39.527Z,14.59
2022-08-25T03:31:39.605Z,14.48
2022-08-25T03:32:39.489Z,14.62
2022-08-25T03:33:39.479Z,14.55
2022-08-25T03:34:39.475Z,14.62
2022-08-25T03:35:39.492Z,14.54
2022-08-25T03:36:39.458Z,14.50
2022-08-25T03:37:39.449Z,14.47
2022-08-25T03:38:39.444Z,14.44
2022-08-25T03:39:39.444Z,14.37
2022-08-25T03:40:39.468Z,14.37
2022-08-25T03:41:39.421Z,14.35
2022-08-25T03:42:43.296Z,14.30
2022-08-25T03:43:40.407Z,14.29
2022-08-25T03:44:39.402Z,14.29
2022-08-25T03:45:39.419Z,14.35
2022-08-25T03:46:39.408Z,14.29
2022-08-25T03:47:39.375Z,14.29
2022-08-25T03:48:39.365Z,14.26
2022-08-25T03:49:39.366Z,14.32
2022-08-25T03:50:39.359Z,14.29
2022-08-25T03:51:39.375Z,14.32
2022-08-25T03:52:42.610Z,14.26
2022-08-25T03:53:40.335Z,14.26
2022-08-25T03:54:39.321Z,14.30
2022-08-25T03:55:39.317Z,14.17
2022-08-25T03:56:39.338Z,14.36
2022-08-25T03:57:39.304Z,14.37
2022-08-25T03:58:39.290Z,14.35
2022-08-25T03:59:39.285Z,14.32
2022-08-25T04:00:39.281Z,14.30
2022-08-25T04:01:39.378Z,14.28
2022-08-25T04:02:39.314Z,14.35
2022-08-25T04:03:39.257Z,14.33
2022-08-25T04:04:39.244Z,14.36
2022-08-25T04:05:39.244Z,14.30
2022-08-25T04:06:39.258Z,14.32
2022-08-25T04:07:39.221Z,14.32
2022-08-25T04:08:39.212Z,14.33
2022-08-25T04:09:39.204Z,14.35
2022-08-25T04:10:39.198Z,14.33
2022-08-25T04:11:39.215Z,14.35
2022-08-25T04:12:39.179Z,14.32
2022-08-25T04:13:39.172Z,14.44
2022-08-25T04:14:39.166Z,14.44
2022-08-25T04:15:39.153Z,14.43
2022-08-25T04:16:39.194Z,14.45
2022-08-25T04:17:39.141Z,14.41
2022-08-25T04:18:39.137Z,14.50
2022-08-25T04:19:39.129Z,14.32
2022-08-25T04:20:42.206Z,14.50
2022-08-25T04:21:40.137Z,14.47
2022-08-25T04:22:39.099Z,14.41
2022-08-25T04:23:40.093Z,14.51
2022-08-25T04:24:39.085Z,14.43
2022-08-25T04:25:39.066Z,14.44
2022-08-25T04:26:40.094Z,14.41
2022-08-25T04:27:39.061Z,14.43
2022-08-25T04:28:39.056Z,14.44
2022-08-25T04:29:39.046Z,14.50
2022-08-25T04:30:39.038Z,14.59
2022-08-25T04:31:39.132Z,14.63
2022-08-25T04:32:39.022Z,14.66
2022-08-25T04:33:39.020Z,14.58
2022-08-25T04:34:39.002Z,14.54
2022-08-25T04:35:38.998Z,14.63
2022-08-25T04:36:39.020Z,14.63
2022-08-25T04:37:39.023Z,14.59
2022-08-25T04:38:38.979Z,14.63
2022-08-25T04:39:38.971Z,14.62
2022-08-25T04:40:38.967Z,14.60
2022-08-25T04:41:38.978Z,14.59
2022-08-25T04:42:38.950Z,14.63
2022-08-25T04:43:38.938Z,14.58
2022-08-25T04:44:38.929Z,14.55
2022-08-25T04:45:38.967Z,14.63
2022-08-25T04:46:38.943Z,14.92
2022-08-25T04:47:38.905Z,15.14
2022-08-25T04:48:38.898Z,15.37
2022-08-25T04:49:38.890Z,15.59
2022-08-25T04:50:38.882Z,15.95
2022-08-25T04:51:38.899Z,16.20
2022-08-25T04:52:38.866Z,16.46
2022-08-25T04:53:38.858Z,16.87
2022-08-25T04:54:38.850Z,17.15
2022-08-25T04:55:38.843Z,17.31
2022-08-25T04:56:38.866Z,17.51
2022-08-25T04:57:38.828Z,17.70
2022-08-25T04:58:38.821Z,17.74
2022-08-25T04:59:38.815Z,17.87
2022-08-25T05:00:38.816Z,17.92
2022-08-25T05:01:38.832Z,18.03
2022-08-25T05:02:38.786Z,18.15
2022-08-25T05:03:38.782Z,18.44
2022-08-25T05:04:38.842Z,18.70
2022-08-25T05:05:38.770Z,19.00
2022-08-25T05:06:38.756Z,19.27
2022-08-25T05:07:38.774Z,19.64
2022-08-25T05:08:38.745Z,19.91
2022-08-25T05:09:38.737Z,20.26
2022-08-25T05:10:38.727Z,20.41
2022-08-25T05:11:38.718Z,20.70
2022-08-25T05:12:38.733Z,20.81
2022-08-25T05:13:38.699Z,20.78
2022-08-25T05:14:38.693Z,21.05
2022-08-25T05:15:38.686Z,21.40
2022-08-25T05:16:38.725Z,21.73
2022-08-25T05:17:38.697Z,21.76
2022-08-25T05:18:38.659Z,21.89
2022-08-25T05:19:38.656Z,22.02
2022-08-25T05:20:38.646Z,22.26
2022-08-25T05:21:38.638Z,22.39
2022-08-25T05:22:38.657Z,22.57
2022-08-25T05:23:38.623Z,22.70
2022-08-25T05:24:38.617Z,22.96
2022-08-25T05:25:38.608Z,23.06
2022-08-25T05:26:38.601Z,23.17
2022-08-25T05:27:38.623Z,23.18
2022-08-25T05:28:38.586Z,23.21
2022-08-25T05:29:38.582Z,23.36
2022-08-25T05:30:38.576Z,23.51
2022-08-25T05:31:42.315Z,23.66
2022-08-25T05:32:39.585Z,23.83
2022-08-25T05:33:38.552Z,24.03
2022-08-25T05:34:38.541Z,24.20
2022-08-25T05:35:38.536Z,24.47
2022-08-25T05:36:38.529Z,24.32
2022-08-25T05:37:38.547Z,24.57
2022-08-25T05:38:38.511Z,24.55
2022-08-25T05:39:38.504Z,24.60
2022-08-25T05:40:38.494Z,24.77
2022-08-25T05:41:38.488Z,24.60
2022-08-25T05:42:38.507Z,24.69
2022-08-25T05:43:38.474Z,24.99
2022-08-25T05:44:38.468Z,25.23
2022-08-25T05:45:38.496Z,25.72
2022-08-25T05:46:38.450Z,25.88
2022-08-25T05:47:38.471Z,26.02
2022-08-25T05:48:38.442Z,26.02
2022-08-25T05:49:38.431Z,26.09
2022-08-25T05:50:38.425Z,25.96
2022-08-25T05:51:38.421Z,26.06
2022-08-25T05:52:38.433Z,26.23
2022-08-25T05:53:38.407Z,26.40
2022-08-25T05:54:38.391Z,26.59
2022-08-25T05:55:38.385Z,26.70
2022-08-25T05:56:38.375Z,26.77
2022-08-25T05:57:38.393Z,26.84
2022-08-25T05:58:38.361Z,27.02
2022-08-25T05:59:38.355Z,27.22
2022-08-25T06:00:38.359Z,27.39
2022-08-25T06:01:38.348Z,27.54
2022-08-25T06:02:38.357Z,27.64
2022-08-25T06:03:38.387Z,27.82
2022-08-25T06:04:41.188Z,27.95
2022-08-25T06:05:39.513Z,28.10
2022-08-25T06:06:38.299Z,28.29
2022-08-25T06:07:38.318Z,28.47
2022-08-25T06:08:38.289Z,28.35
2022-08-25T06:09:38.286Z,28.47
2022-08-25T06:10:38.279Z,28.47
2022-08-25T06:11:38.272Z,28.63
2022-08-25T06:12:38.293Z,28.62
2022-08-25T06:13:38.257Z,28.84
2022-08-25T06:14:38.247Z,28.75
2022-08-25T06:15:38.242Z,28.93
2022-08-25T06:16:38.281Z,28.88
2022-08-25T06:17:38.256Z,29.13
2022-08-25T06:18:38.224Z,29.19
2022-08-25T06:19:38.214Z,29.10
2022-08-25T06:20:38.209Z,29.14
2022-08-25T06:21:38.200Z,29.16
2022-08-25T06:22:38.223Z,28.98
2022-08-25T06:23:38.189Z,28.89
2022-08-25T06:24:38.186Z,28.86
2022-08-25T06:25:38.176Z,28.78
2022-08-25T06:26:38.170Z,29.14
2022-08-25T06:27:38.187Z,29.44
2022-08-25T06:28:38.161Z,29.66
2022-08-25T06:29:38.149Z,29.79
2022-08-25T06:30:38.144Z,29.91
2022-08-25T06:31:38.215Z,29.73
2022-08-25T06:32:38.151Z,29.60
2022-08-25T06:33:38.125Z,29.81
2022-08-25T06:34:38.117Z,30.19
2022-08-25T06:35:38.117Z,30.80
2022-08-25T06:36:38.106Z,30.83
2022-08-25T06:37:38.124Z,30.72
2022-08-25T06:38:38.089Z,30.78
2022-08-25T06:39:38.085Z,30.77
2022-08-25T06:40:38.076Z,30.92
2022-08-25T06:41:38.071Z,31.36
2022-08-25T06:42:38.089Z,31.54
2022-08-25T06:43:38.057Z,31.81
2022-08-25T06:44:38.052Z,31.87
2022-08-25T06:45:38.078Z,31.84
2022-08-25T06:46:38.062Z,31.89
2022-08-25T06:47:38.033Z,32.09
2022-08-25T06:48:38.055Z,32.04
2022-08-25T06:49:38.027Z,32.08
2022-08-25T06:50:38.053Z,32.34
2022-08-25T06:51:38.012Z,32.31
2022-08-25T06:52:38.001Z,32.04
2022-08-25T06:53:38.020Z,32.01
2022-08-25T06:54:37.990Z,31.62
2022-08-25T06:55:37.985Z,31.80
2022-08-25T06:56:37.975Z,32.03
2022-08-25T06:57:37.974Z,32.41
2022-08-25T06:58:37.989Z,32.49
2022-08-25T06:59:37.955Z,32.49
2022-08-25T07:00:37.981Z,32.34
2022-08-25T07:01:38.075Z,32.63
2022-08-25T07:02:37.969Z,32.75
2022-08-25T07:03:37.964Z,32.78
2022-08-25T07:04:37.931Z,32.92
2022-08-25T07:05:43.762Z,32.63
2022-08-25T07:06:39.916Z,33.27
2022-08-25T07:07:44.080Z,33.49
2022-08-25T07:08:38.932Z,33.46
2022-08-25T07:09:39.270Z,33.30
2022-08-25T07:10:38.896Z,32.74
2022-08-25T07:11:37.894Z,32.78
2022-08-25T07:12:37.911Z,33.04
2022-08-25T07:13:37.881Z,33.30
2022-08-25T07:14:37.877Z,33.36
2022-08-25T07:15:37.868Z,33.73
2022-08-25T07:16:37.918Z,33.64
2022-08-25T07:17:37.883Z,33.57
2022-08-25T07:18:37.850Z,33.00
2022-08-25T07:19:37.844Z,32.37
2022-08-25T07:20:37.840Z,31.37
2022-08-25T07:21:37.834Z,30.94
2022-08-25T07:22:37.862Z,29.93
2022-08-25T07:23:37.825Z,29.78
2022-08-25T07:24:37.818Z,29.82
2022-08-25T07:25:37.813Z,28.94
2022-08-25T07:26:38.983Z,28.47
2022-08-25T07:27:37.833Z,28.32
2022-08-25T07:28:37.792Z,28.52
2022-08-25T07:29:42.233Z,28.93
2022-08-25T07:30:37.779Z,28.93
2022-08-25T07:31:38.011Z,28.23
2022-08-25T07:32:37.772Z,28.15
2022-08-25T07:33:37.789Z,28.62
2022-08-25T07:34:37.762Z,29.39
2022-08-25T07:35:38.012Z,29.23
2022-08-25T07:36:37.746Z,29.53
2022-08-25T07:37:50.548Z,29.29
2022-08-25T07:38:39.759Z,29.24
2022-08-25T07:39:37.729Z,28.89
2022-08-25T07:40:37.720Z,28.89
2022-08-25T07:41:38.714Z,28.79
2022-08-25T07:42:37.708Z,28.35
2022-08-25T07:43:37.725Z,27.90
2022-08-25T07:44:37.697Z,27.74
2022-08-25T07:45:37.690Z,27.49
2022-08-25T07:46:38.760Z,27.45
2022-08-25T07:47:37.677Z,27.93
2022-08-25T07:48:37.695Z,27.96
2022-08-25T07:49:39.931Z,28.44
2022-08-25T07:50:37.656Z,28.56
2022-08-25T07:51:37.688Z,28.48
2022-08-25T07:52:38.744Z,28.54
2022-08-25T07:53:37.667Z,28.79
2022-08-25T07:54:38.351Z,28.93
2022-08-25T07:55:37.623Z,28.79
2022-08-25T07:56:37.620Z,28.78
2022-08-25T07:57:37.615Z,28.48
2022-08-25T07:58:37.630Z,28.37
2022-08-25T07:59:39.752Z,28.27
2022-08-25T08:00:37.597Z,28.39
2022-08-25T08:01:38.598Z,28.41
2022-08-25T08:02:37.619Z,28.57
2022-08-25T08:03:50.041Z,28.57
2022-08-25T08:04:39.570Z,28.47
2022-08-25T08:05:37.553Z,28.26
2022-08-25T08:06:38.555Z,28.38
2022-08-25T08:07:43.389Z,28.30
2022-08-25T08:08:38.571Z,28.48
2022-08-25T08:09:37.542Z,28.78
2022-08-25T08:10:53.843Z,28.62
2022-08-25T08:11:42.538Z,28.27
2022-08-25T08:12:38.544Z,28.63
2022-08-25T08:13:41.290Z,28.56
2022-08-25T08:14:38.507Z,28.59
2022-08-25T08:15:38.500Z,28.64
2022-08-25T08:16:37.534Z,28.82
2022-08-25T08:17:37.510Z,29.04
2022-08-25T08:18:37.484Z,29.22
2022-08-25T08:19:39.849Z,28.93
2022-08-25T08:20:42.380Z,28.88
2022-08-25T08:21:38.464Z,28.85
2022-08-25T08:22:37.482Z,28.93
2022-08-25T08:23:37.455Z,29.04
2022-08-25T08:24:44.592Z,28.88
2022-08-25T08:25:39.435Z,28.70
2022-08-25T08:26:57.742Z,28.47
2022-08-25T08:27:39.449Z,28.56
2022-08-25T08:28:37.418Z,28.63
2022-08-25T08:29:37.416Z,28.78
2022-08-25T08:30:37.427Z,28.86
2022-08-25T08:31:37.499Z,28.93
2022-08-25T08:33:08.137Z,28.93
2022-08-25T08:33:40.683Z,29.16
2022-08-25T08:34:37.416Z,29.27
2022-08-25T08:35:37.375Z,29.10
2022-08-25T08:36:37.372Z,28.30
2022-08-25T08:37:37.388Z,28.42
2022-08-25T08:38:37.355Z,29.31
2022-08-25T08:39:37.344Z,29.57
2022-08-25T08:40:37.371Z,28.48
2022-08-25T08:42:07.365Z,27.78
2022-08-25T08:42:39.349Z,28.23
2022-08-25T08:43:37.319Z,28.32
2022-08-25T08:44:37.309Z,27.93
2022-08-25T08:45:40.523Z,27.33
2022-08-25T08:46:38.389Z,27.21
2022-08-25T08:47:37.312Z,27.21
2022-08-25T08:48:37.282Z,27.35
2022-08-25T08:49:37.280Z,27.39
2022-08-25T08:50:37.358Z,27.25
2022-08-25T08:51:37.264Z,27.03
2022-08-25T08:52:37.276Z,27.00
2022-08-25T08:53:37.246Z,27.58
2022-08-25T08:54:37.240Z,28.47
2022-08-25T08:55:37.239Z,28.12
2022-08-25T08:56:37.226Z,27.67
2022-08-25T08:57:37.311Z,27.15
2022-08-25T08:58:37.213Z,27.30
2022-08-25T08:59:37.207Z,27.37
2022-08-25T09:00:37.200Z,28.25
2022-08-25T09:01:37.257Z,27.86
2022-08-25T09:02:49.999Z,27.85
2022-08-25T09:03:39.434Z,28.60
2022-08-25T09:04:37.169Z,29.32
2022-08-25T09:05:41.829Z,29.68
2022-08-25T09:06:39.154Z,29.94
2022-08-25T09:07:37.148Z,30.63
2022-08-25T09:08:38.167Z,30.03
2022-08-25T09:09:38.140Z,29.71
2022-08-25T09:10:37.129Z,29.61
2022-08-25T09:11:37.123Z,29.75
2022-08-25T09:12:37.129Z,29.53
2022-08-25T09:13:37.126Z,29.71
2022-08-25T09:14:38.100Z,29.68
2022-08-25T09:15:40.951Z,29.84
2022-08-25T09:16:37.130Z,29.73
2022-08-25T09:17:37.074Z,29.78
2022-08-25T09:18:41.013Z,30.16
2022-08-25T09:19:41.975Z,30.16
2022-08-25T09:20:37.050Z,30.21
2022-08-25T09:21:37.040Z,30.00
2022-08-25T09:22:37.039Z,29.91
2022-08-25T09:23:37.058Z,29.97
2022-08-25T09:24:37.028Z,29.91
2022-08-25T09:25:53.153Z,29.68
2022-08-25T09:26:39.016Z,29.69
2022-08-25T09:27:37.030Z,30.06
2022-08-25T09:28:37.002Z,30.21
2022-08-25T09:29:36.994Z,30.69
2022-08-25T09:30:36.985Z,30.90
2022-08-25T09:31:37.034Z,30.13
2022-08-25T09:32:37.001Z,29.87
2022-08-25T09:33:36.956Z,29.88
2022-08-25T09:34:37.955Z,29.72
2022-08-25T09:35:36.952Z,29.78
2022-08-25T09:36:37.831Z,29.59
2022-08-25T09:37:37.975Z,29.16
2022-08-25T09:38:36.930Z,28.86
2022-08-25T09:39:36.925Z,28.48
2022-08-25T09:40:36.919Z,28.60
2022-08-25T09:41:36.906Z,28.66
2022-08-25T09:42:36.927Z,28.56
2022-08-25T09:43:36.892Z,28.42
2022-08-25T09:44:36.894Z,28.15
2022-08-25T09:45:36.877Z,27.73
2022-08-25T09:46:36.907Z,27.68
2022-08-25T09:47:37.047Z,27.80
2022-08-25T09:48:39.707Z,28.08
2022-08-25T09:49:37.850Z,27.82
2022-08-25T09:50:36.844Z,28.15
2022-08-25T09:51:42.425Z,28.49
2022-08-25T09:52:38.857Z,28.49
2022-08-25T09:53:36.827Z,28.33
2022-08-25T09:54:43.926Z,28.26
2022-08-25T09:55:37.810Z,28.12
2022-08-25T09:56:36.805Z,27.82
2022-08-25T09:57:36.802Z,27.52
2022-08-25T09:58:36.814Z,27.42
2022-08-25T09:59:36.807Z,27.44
2022-08-25T10:00:36.786Z,27.60
2022-08-25T10:01:36.802Z,27.73
2022-08-25T10:02:37.445Z,27.67
2022-08-25T10:03:36.949Z,27.60
2022-08-25T10:04:36.750Z,27.44
2022-08-25T10:05:36.743Z,27.42
2022-08-25T10:06:36.734Z,27.54
2022-08-25T10:07:36.736Z,27.64
2022-08-25T10:08:36.766Z,27.48
2022-08-25T10:09:36.713Z,27.74
2022-08-25T10:10:36.704Z,27.77
2022-08-25T10:11:36.696Z,27.92
2022-08-25T10:12:36.690Z,27.86
2022-08-25T10:13:37.705Z,27.85
2022-08-25T10:14:37.357Z,27.87
2022-08-25T10:15:36.689Z,28.14
2022-08-25T10:16:36.802Z,28.52
2022-08-25T10:17:36.655Z,28.70
2022-08-25T10:18:36.672Z,28.63
2022-08-25T10:19:36.654Z,28.81
2022-08-25T10:20:36.636Z,28.79
2022-08-25T10:21:37.625Z,28.81
2022-08-25T10:22:36.623Z,28.94
2022-08-25T10:23:36.634Z,29.02
2022-08-25T10:24:36.600Z,29.20
2022-08-25T10:25:36.600Z,29.29
2022-08-25T10:26:36.590Z,29.38
2022-08-25T10:27:36.579Z,29.38
2022-08-25T10:28:36.602Z,29.39
2022-08-25T10:29:36.569Z,29.38
2022-08-25T10:30:36.612Z,29.45
2022-08-25T10:31:36.564Z,29.41
2022-08-25T10:32:36.550Z,29.38
2022-08-25T10:33:36.560Z,29.26
2022-08-25T10:34:36.529Z,28.96
2022-08-25T10:35:36.525Z,28.91
2022-08-25T10:36:36.521Z,28.89
2022-08-25T10:37:36.516Z,29.19
2022-08-25T10:38:36.624Z,29.23
2022-08-25T10:39:40.554Z,29.04
2022-08-25T10:40:36.531Z,28.59
2022-08-25T10:41:36.483Z,28.26
2022-08-25T10:42:36.479Z,28.14
2022-08-25T10:43:36.491Z,28.08
2022-08-25T10:44:36.461Z,28.00
2022-08-25T10:45:36.453Z,28.19
2022-08-25T10:46:36.529Z,28.29
2022-08-25T10:47:36.438Z,28.37
2022-08-25T10:48:36.458Z,28.56
2022-08-25T10:49:36.425Z,28.60
2022-08-25T10:50:36.418Z,28.62
2022-08-25T10:51:36.409Z,28.81
2022-08-25T10:52:36.400Z,28.88
2022-08-25T10:53:36.418Z,28.74
2022-08-25T10:54:36.390Z,28.57
2022-08-25T10:55:40.310Z,28.44
2022-08-25T10:56:36.951Z,28.25
2022-08-25T10:57:36.375Z,28.37
2022-08-25T10:58:36.383Z,28.39
2022-08-25T10:59:36.347Z,28.41
2022-08-25T11:00:36.343Z,28.39
2022-08-25T11:01:43.823Z,28.37
2022-08-25T11:02:38.324Z,28.42
2022-08-25T11:03:36.354Z,28.41
2022-08-25T11:04:36.403Z,28.54
2022-08-25T11:05:36.357Z,28.86
2022-08-25T11:06:37.302Z,29.07
2022-08-25T11:07:36.296Z,29.26
2022-08-25T11:08:36.309Z,29.20
2022-08-25T11:09:36.559Z,29.32
2022-08-25T11:10:36.265Z,29.38
2022-08-25T11:11:36.261Z,28.84
2022-08-25T11:12:36.249Z,28.70
2022-08-25T11:13:36.266Z,28.81
2022-08-25T11:14:36.271Z,28.96
2022-08-25T11:15:36.230Z,28.89
2022-08-25T11:16:36.394Z,28.81
2022-08-25T11:17:36.217Z,28.89
2022-08-25T11:18:36.207Z,28.96
2022-08-25T11:19:36.229Z,29.22
2022-08-25T11:20:36.202Z,29.29
2022-08-25T11:21:36.186Z,29.34
2022-08-25T11:22:36.175Z,29.39
2022-08-25T11:23:36.171Z,29.53
2022-08-25T11:24:36.309Z,29.47
2022-08-25T11:25:36.150Z,29.35
2022-08-25T11:26:37.226Z,29.10
2022-08-25T11:27:37.139Z,28.91
2022-08-25T11:28:36.128Z,28.64
2022-08-25T11:29:36.150Z,28.45
2022-08-25T11:30:36.181Z,28.52
2022-08-25T11:31:36.104Z,28.63
2022-08-25T11:32:36.142Z,28.74
2022-08-25T11:33:36.092Z,28.91
2022-08-25T11:34:36.108Z,29.04
2022-08-25T11:35:37.080Z,29.14
2022-08-25T11:36:36.066Z,29.12
2022-08-25T11:37:36.060Z,29.16
2022-08-25T11:38:36.057Z,29.14
2022-08-25T11:39:36.078Z,29.01
2022-08-25T11:40:36.043Z,28.86
2022-08-25T11:41:36.034Z,28.88
2022-08-25T11:42:36.027Z,29.02
2022-08-25T11:43:36.024Z,29.14
2022-08-25T11:44:36.032Z,29.19
2022-08-25T11:45:36.001Z,29.19
2022-08-25T11:46:35.998Z,29.10
2022-08-25T11:47:35.987Z,29.02
2022-08-25T11:48:35.979Z,29.13
2022-08-25T11:49:35.998Z,29.22
2022-08-25T11:50:35.960Z,29.32
2022-08-25T11:51:36.367Z,29.54
2022-08-25T11:52:35.951Z,29.41
2022-08-25T11:53:35.940Z,29.29
2022-08-25T11:54:35.957Z,29.22
2022-08-25T11:55:35.949Z,29.34
2022-08-25T11:56:35.919Z,29.35
2022-08-25T11:57:35.913Z,29.32
2022-08-25T11:58:35.905Z,29.26
2022-08-25T11:59:35.924Z,29.05
2022-08-25T12:00:35.885Z,28.93
2022-08-25T12:01:35.877Z,28.94
2022-08-25T12:02:35.899Z,28.88
2022-08-25T12:03:35.863Z,29.12
2022-08-25T12:04:44.164Z,29.05
2022-08-25T12:05:36.879Z,29.24
2022-08-25T12:06:35.850Z,29.24
2022-08-25T12:07:35.833Z,29.13
2022-08-25T12:08:35.821Z,29.32
2022-08-25T12:09:35.815Z,29.23
2022-08-25T12:10:35.835Z,29.29
2022-08-25T12:11:35.800Z,29.39
2022-08-25T12:12:35.798Z,29.42
2022-08-25T12:13:35.782Z,29.60
2022-08-25T12:14:35.803Z,29.60
2022-08-25T12:15:35.771Z,29.63
2022-08-25T12:16:35.854Z,29.73
2022-08-25T12:17:35.749Z,29.81
2022-08-25T12:18:35.742Z,29.68
2022-08-25T12:19:35.761Z,29.79
2022-08-25T12:20:35.732Z,30.13
2022-08-25T12:21:35.715Z,30.34
2022-08-25T12:22:36.718Z,30.35
2022-08-25T12:23:35.713Z,30.40
2022-08-25T12:24:35.730Z,30.37
2022-08-25T12:25:35.698Z,30.30
2022-08-25T12:26:35.687Z,30.35
2022-08-25T12:27:35.682Z,30.46
2022-08-25T12:28:35.678Z,30.43
2022-08-25T12:29:35.693Z,30.51
2022-08-25T12:30:36.847Z,30.73
2022-08-25T12:31:35.653Z,31.02
2022-08-25T12:32:35.650Z,31.33
2022-08-25T12:33:35.680Z,31.39
2022-08-25T12:34:35.628Z,31.12
2022-08-25T12:35:35.651Z,30.94
2022-08-25T12:36:35.633Z,30.84
2022-08-25T12:37:35.608Z,30.59
2022-08-25T12:38:38.772Z,30.30
2022-08-25T12:39:36.593Z,30.03
2022-08-25T12:40:35.681Z,30.05
2022-08-25T12:41:35.576Z,29.90
2022-08-25T12:42:35.571Z,29.87
2022-08-25T12:43:37.834Z,29.79
2022-08-25T12:44:35.555Z,29.60
2022-08-25T12:45:35.661Z,29.44
2022-08-25T12:46:35.547Z,29.34
2022-08-25T12:47:35.537Z,29.19
2022-08-25T12:48:35.530Z,29.31
2022-08-25T12:49:35.521Z,29.51
2022-08-25T12:50:35.541Z,29.68
2022-08-25T12:51:35.513Z,29.71
2022-08-25T12:52:35.500Z,29.72